Portada
METAR-TAF:

METAR-TAF

Aeroports :

Laghouat, Algèria

latitud: 33-46N, longitud: 002-56E, altitud: 765 m

Observació

L'informe es va fer fa 56 minuts, a les 16:00 UTC
Vent 16 kt del Sud/Sud-Oest
Temperatura 21°C
Humitat 28%
Pressió 1014 hPa
Visibilitat 10 km o més
Cel ennuvolat a una alçada de 3000 ft

METAR: DAUL 261600Z 21016KT 9999 BKN030 21/02 Q1014

Hora: 17:56 (16:56 UTC)

Pronòstic

L'informe es va fer fa 2 hores i 56 minuts, a les 14:00 UTC
Pronòstic vàlid del 26 a les 15 UTC al 26 a les 24 UTC
Vent 10 kt del Oest/Sud-Oest
Visibilitat 10 km o més
Núvols disperses a una alçada de 4000 ft
Núvols disperses a una alçada de 10000 ft
Probabilitat 40% :
Temporalment
l' 26 a les 15 UTC al 26 a les 18 UTC
Vent 15 kt del Oest/Sud-Oest amb ràfegues de 25 kt
Visibilitat: 5000 m
Escasses núvols a una alçada de 2600 ft, Cumulonimbus.
tempesta, pluja

TAF: DAUL 261400Z 2615/2624 24010KT 9999 SCT040 SCT100 PROB40 TEMPO 2615/2618 24015G25KT 5000 -TSRA FEW026CB

Observacions i pronòstics meteorològics de més de 4000 aeroports (METAR i TAF).

Les estacions disponibles són els punts grocs i vermells al mapa.

Posi el ratolí al punt desitjat per veure el nom de l'estació.

Feu clic per veure les observacions i els pronòstics meteorològics.

Per canviar el mapa: feu clic els botons verds amb una creu de color negre per apropar; al botó verd amb un guió per allunyar la imatge; o en les fletxes verdes per a mapes adjacents.


METAR-TAF: